createdAt,value
2017-12-16T00:02:25.057Z,70.20
2017-12-16T00:04:52.709Z,70.10
2017-12-16T00:07:20.321Z,70.20
2017-12-16T00:09:47.949Z,70.10
2017-12-16T00:12:15.540Z,70.10
2017-12-16T00:14:43.152Z,69.90
2017-12-16T00:17:10.792Z,70.10
2017-12-16T00:19:39.144Z,70.10
2017-12-16T00:22:06.770Z,70.00
2017-12-16T00:24:34.366Z,69.90
2017-12-16T00:27:01.961Z,69.80
2017-12-16T00:29:29.578Z,69.90
2017-12-16T00:31:57.160Z,69.70
2017-12-16T00:34:25.568Z,69.90
2017-12-16T00:36:53.199Z,69.90
2017-12-16T00:39:21.572Z,69.70
2017-12-16T00:41:49.187Z,69.70
2017-12-16T00:44:16.780Z,69.80
2017-12-16T00:46:44.426Z,69.80
2017-12-16T00:49:12.821Z,69.80
2017-12-16T00:51:40.575Z,69.60
2017-12-16T00:54:08.217Z,69.70
2017-12-16T00:56:35.814Z,69.70
2017-12-16T00:59:03.461Z,69.70
2017-12-16T01:01:31.053Z,69.90
2017-12-16T01:03:58.680Z,69.80
2017-12-16T01:06:26.323Z,69.90
2017-12-16T01:08:53.920Z,69.90
2017-12-16T01:11:21.597Z,70.00
2017-12-16T01:13:49.955Z,69.90
2017-12-16T01:16:17.548Z,69.70
2017-12-16T01:18:45.948Z,69.90
2017-12-16T01:21:13.556Z,69.70
2017-12-16T01:23:41.198Z,69.70
2017-12-16T01:26:08.793Z,69.60
2017-12-16T01:28:37.189Z,69.70
2017-12-16T01:31:05.545Z,69.50
2017-12-16T01:33:45.144Z,69.40
2017-12-16T01:39:17.118Z,69.70
2017-12-16T01:41:44.729Z,69.60
2017-12-16T01:44:13.097Z,69.70
2017-12-16T01:46:40.745Z,69.50
2017-12-16T01:49:08.385Z,69.50
2017-12-16T01:51:35.979Z,69.50
2017-12-16T01:54:03.604Z,69.50
2017-12-16T01:56:31.233Z,69.80
2017-12-16T01:58:59.625Z,69.50
2017-12-16T02:01:27.280Z,69.40
2017-12-16T02:03:54.978Z,69.40
2017-12-16T02:06:22.621Z,69.40
2017-12-16T02:08:50.225Z,69.10
2017-12-16T02:11:17.832Z,69.20
2017-12-16T02:13:45.493Z,70.00
2017-12-16T02:16:13.109Z,69.40
2017-12-16T02:18:40.749Z,69.40
2017-12-16T02:21:08.360Z,69.30
2017-12-16T02:23:36.745Z,69.40
2017-12-16T02:26:05.145Z,69.30
2017-12-16T02:28:32.763Z,69.20
2017-12-16T02:31:00.421Z,69.20
2017-12-16T02:33:28.057Z,69.30
2017-12-16T02:35:55.809Z,69.10
2017-12-16T02:38:23.440Z,69.30
2017-12-16T02:40:51.045Z,69.30
2017-12-16T02:43:18.692Z,69.30
2017-12-16T02:45:46.308Z,69.40
2017-12-16T02:48:14.688Z,69.40
2017-12-16T02:50:43.096Z,69.40
2017-12-16T02:53:10.704Z,69.20
2017-12-16T02:55:38.341Z,69.30
2017-12-16T02:58:05.952Z,69.30
2017-12-16T03:00:34.336Z,69.30
2017-12-16T03:03:02.753Z,69.50
2017-12-16T03:05:30.384Z,69.40
2017-12-16T03:07:58.020Z,69.30
2017-12-16T03:10:26.388Z,69.20
2017-12-16T03:12:54.049Z,69.20
2017-12-16T03:15:21.654Z,69.40
2017-12-16T03:17:49.265Z,69.30
2017-12-16T03:20:16.913Z,69.40
2017-12-16T03:22:44.540Z,69.20
2017-12-16T03:25:12.169Z,69.40
2017-12-16T03:27:40.561Z,69.20
2017-12-16T03:30:08.942Z,69.20
2017-12-16T03:32:36.610Z,69.10
2017-12-16T03:35:04.249Z,69.20
2017-12-16T03:37:32.709Z,69.30
2017-12-16T03:40:00.317Z,69.20
2017-12-16T03:42:27.929Z,69.40
2017-12-16T03:44:55.579Z,69.40
2017-12-16T03:47:23.239Z,69.20
2017-12-16T03:49:50.978Z,69.20
2017-12-16T03:52:18.881Z,69.10
2017-12-16T03:54:46.506Z,69.10
2017-12-16T03:57:14.129Z,69.10
2017-12-16T03:59:42.497Z,69.30
2017-12-16T04:02:10.145Z,69.20
2017-12-16T04:04:37.789Z,69.10
2017-12-16T04:07:05.438Z,69.20
2017-12-16T04:09:33.040Z,69.10
2017-12-16T04:12:00.634Z,69.30
2017-12-16T04:14:28.273Z,69.20
2017-12-16T04:16:56.661Z,69.40
2017-12-16T04:19:25.101Z,69.40
2017-12-16T04:21:52.733Z,69.30
2017-12-16T04:24:20.391Z,69.60
2017-12-16T04:26:48.025Z,69.50
2017-12-16T04:29:16.445Z,69.20
2017-12-16T04:31:44.105Z,69.10
2017-12-16T04:34:11.738Z,69.60
2017-12-16T04:36:39.365Z,69.20
2017-12-16T04:39:07.104Z,69.20
2017-12-16T04:41:34.714Z,69.20
2017-12-16T04:44:03.139Z,69.40
2017-12-16T04:46:30.772Z,69.40
2017-12-16T04:48:58.418Z,69.10
2017-12-16T04:51:26.790Z,69.20
2017-12-16T04:53:55.196Z,69.30
2017-12-16T04:56:22.826Z,69.20
2017-12-16T04:58:51.205Z,69.30
2017-12-16T05:01:19.624Z,69.30
2017-12-16T05:03:47.232Z,69.30
2017-12-16T05:06:14.858Z,69.40
2017-12-16T05:08:42.494Z,69.30
2017-12-16T05:11:10.115Z,69.10
2017-12-16T05:13:37.742Z,69.10
2017-12-16T05:16:05.409Z,69.30
2017-12-16T05:18:33.449Z,69.30
2017-12-16T05:21:01.084Z,69.30
2017-12-16T05:23:29.457Z,69.40
2017-12-16T05:25:57.892Z,69.20
2017-12-16T05:28:25.497Z,69.20
2017-12-16T05:30:53.913Z,70.10
2017-12-16T05:33:21.521Z,69.30
2017-12-16T05:35:50.660Z,69.30
2017-12-16T05:38:18.285Z,69.20
2017-12-16T05:40:47.432Z,69.10
2017-12-16T05:43:15.079Z,69.10
2017-12-16T05:45:43.472Z,69.10
2017-12-16T05:48:11.143Z,69.00
2017-12-16T05:50:38.770Z,68.90
2017-12-16T05:53:07.189Z,69.30
2017-12-16T05:55:34.777Z,69.20
2017-12-16T05:58:03.896Z,69.50
2017-12-16T06:00:32.315Z,69.40
2017-12-16T06:02:59.921Z,69.30
2017-12-16T06:05:27.576Z,69.50
2017-12-16T06:07:55.168Z,69.30
2017-12-16T06:10:23.540Z,69.50
2017-12-16T06:12:51.937Z,69.40
2017-12-16T06:15:19.626Z,69.40
2017-12-16T06:17:47.288Z,69.20
2017-12-16T06:20:14.892Z,69.30
2017-12-16T06:22:42.533Z,69.30
2017-12-16T06:25:10.166Z,70.20
2017-12-16T06:27:37.772Z,69.30
2017-12-16T06:30:05.405Z,69.40
2017-12-16T06:32:33.001Z,69.50
2017-12-16T06:35:01.422Z,69.50
2017-12-16T06:37:29.048Z,69.30
2017-12-16T06:39:57.426Z,69.30
2017-12-16T06:42:25.837Z,69.40
2017-12-16T06:44:53.437Z,69.30
2017-12-16T06:47:22.595Z,69.40
2017-12-16T06:49:50.193Z,69.40
2017-12-16T06:52:17.800Z,69.40
2017-12-16T06:54:45.424Z,69.50
2017-12-16T06:57:14.560Z,69.30
2017-12-16T06:59:42.218Z,69.30
2017-12-16T07:02:09.839Z,69.30
2017-12-16T07:04:37.445Z,69.20
2017-12-16T07:07:05.073Z,69.10
2017-12-16T07:09:32.797Z,69.10
2017-12-16T07:12:00.444Z,69.40
2017-12-16T07:14:28.067Z,69.30
2017-12-16T07:16:55.800Z,69.30
2017-12-16T07:19:23.447Z,69.30
2017-12-16T07:21:51.064Z,69.20
2017-12-16T07:24:19.461Z,69.30
2017-12-16T07:26:47.065Z,69.30
2017-12-16T07:29:14.695Z,69.40
2017-12-16T07:31:42.288Z,69.30
2017-12-16T07:34:09.966Z,69.20
2017-12-16T07:36:38.369Z,69.20
2017-12-16T07:39:06.728Z,69.10
2017-12-16T07:41:34.343Z,69.10
2017-12-16T07:44:01.934Z,69.20
2017-12-16T07:46:31.088Z,69.40
2017-12-16T07:48:58.677Z,69.30
2017-12-16T07:51:26.260Z,69.10
2017-12-16T07:53:53.884Z,69.50
2017-12-16T07:56:21.493Z,69.60
2017-12-16T07:58:49.900Z,69.70
2017-12-16T08:01:17.505Z,69.60
2017-12-16T08:03:45.131Z,69.70
2017-12-16T08:06:13.524Z,69.90
2017-12-16T08:08:41.134Z,69.80
2017-12-16T08:11:09.545Z,69.90
2017-12-16T08:13:37.165Z,69.90
2017-12-16T08:16:04.803Z,70.00
2017-12-16T08:18:32.420Z,70.00
2017-12-16T08:21:00.064Z,70.40
2017-12-16T08:23:28.491Z,70.20
2017-12-16T08:25:56.180Z,70.20
2017-12-16T08:28:23.797Z,70.10
2017-12-16T08:30:51.417Z,70.10
2017-12-16T08:33:19.011Z,70.30
2017-12-16T08:35:46.642Z,70.40
2017-12-16T08:38:15.032Z,70.50
2017-12-16T08:40:43.428Z,70.50
2017-12-16T08:43:11.054Z,70.50
2017-12-16T08:45:38.654Z,70.60
2017-12-16T08:48:06.308Z,70.70
2017-12-16T08:50:33.901Z,70.60
2017-12-16T08:53:01.660Z,70.70
2017-12-16T08:55:29.253Z,70.60
2017-12-16T08:57:56.847Z,70.50
2017-12-16T09:00:24.490Z,70.50
2017-12-16T09:02:52.888Z,70.50
2017-12-16T09:05:20.525Z,70.50
2017-12-16T09:07:48.133Z,70.30
2017-12-16T09:10:15.727Z,70.60
2017-12-16T09:12:43.690Z,70.90
2017-12-16T09:15:12.804Z,71.10
2017-12-16T09:17:40.432Z,71.00
2017-12-16T09:20:08.037Z,71.00
2017-12-16T09:22:36.469Z,71.30
2017-12-16T09:25:04.105Z,71.20
2017-12-16T09:27:31.715Z,71.30
2017-12-16T09:29:59.337Z,71.20
2017-12-16T09:32:26.953Z,71.20
2017-12-16T09:34:54.541Z,71.20
2017-12-16T09:37:22.168Z,71.60
2017-12-16T09:39:49.761Z,71.10
2017-12-16T09:42:17.427Z,71.30
2017-12-16T09:44:45.329Z,71.40
2017-12-16T09:47:12.935Z,71.20
2017-12-16T09:49:41.317Z,71.30
2017-12-16T09:52:09.677Z,71.30
2017-12-16T09:54:37.385Z,71.10
2017-12-16T09:57:04.981Z,71.40
2017-12-16T09:59:32.579Z,72.00
2017-12-16T10:02:00.980Z,72.00
2017-12-16T10:04:28.600Z,72.00
2017-12-16T10:06:56.233Z,71.80
2017-12-16T10:09:23.883Z,72.00
2017-12-16T10:11:51.530Z,71.80
2017-12-16T10:14:19.128Z,71.90
2017-12-16T10:16:46.733Z,71.60
2017-12-16T10:19:14.349Z,71.90
2017-12-16T10:21:41.953Z,71.80
2017-12-16T10:24:10.355Z,71.80
2017-12-16T10:26:37.952Z,71.80
2017-12-16T10:29:06.385Z,71.70
2017-12-16T10:31:34.152Z,71.80
2017-12-16T10:34:01.741Z,72.20
2017-12-16T10:36:29.369Z,72.10
2017-12-16T10:38:57.081Z,72.50
2017-12-16T10:41:24.717Z,72.40
2017-12-16T10:43:52.316Z,72.40
2017-12-16T10:46:19.920Z,72.50
2017-12-16T10:48:47.556Z,72.70
2017-12-16T10:51:15.956Z,72.20
2017-12-16T10:53:43.578Z,72.00
2017-12-16T10:56:11.176Z,72.10
2017-12-16T10:58:38.885Z,72.00
2017-12-16T11:01:09.176Z,72.10
2017-12-16T11:03:36.786Z,72.00
2017-12-16T11:06:05.310Z,72.40
2017-12-16T11:08:32.891Z,72.30
2017-12-16T11:11:00.654Z,72.40
2017-12-16T11:13:28.255Z,72.60
2017-12-16T11:15:55.917Z,72.30
2017-12-16T11:18:23.513Z,72.00
2017-12-16T11:20:51.124Z,71.90
2017-12-16T11:23:18.757Z,72.30
2017-12-16T11:25:46.344Z,72.50
2017-12-16T11:28:14.772Z,72.00
2017-12-16T11:30:42.364Z,71.90
2017-12-16T11:33:09.961Z,72.30
2017-12-16T11:35:37.584Z,72.40
2017-12-16T11:38:05.169Z,73.00
2017-12-16T11:40:32.793Z,73.00
2017-12-16T11:43:00.392Z,72.90
2017-12-16T11:45:28.023Z,72.60
2017-12-16T11:47:55.827Z,72.70
2017-12-16T11:50:24.266Z,72.60
2017-12-16T11:52:52.052Z,72.50
2017-12-16T11:55:19.650Z,73.10
2017-12-16T11:57:48.033Z,72.30
2017-12-16T12:00:16.400Z,72.10
2017-12-16T12:02:44.817Z,72.30
2017-12-16T12:05:12.498Z,72.30
2017-12-16T12:07:40.091Z,72.40
2017-12-16T12:10:07.720Z,72.20
2017-12-16T12:12:35.383Z,72.30
2017-12-16T12:15:03.009Z,72.50
2017-12-16T12:17:30.611Z,73.20
2017-12-16T12:19:58.250Z,72.40
2017-12-16T12:22:25.844Z,72.50
2017-12-16T12:24:53.468Z,72.70
2017-12-16T12:27:21.088Z,72.80
2017-12-16T12:29:49.467Z,73.20
2017-12-16T12:32:17.883Z,72.80
2017-12-16T12:34:45.477Z,72.70
2017-12-16T12:37:13.120Z,72.30
2017-12-16T12:39:40.713Z,72.50
2017-12-16T12:42:08.327Z,72.50
2017-12-16T12:44:35.957Z,73.00
2017-12-16T12:47:04.322Z,72.50
2017-12-16T12:49:32.718Z,72.60
2017-12-16T12:52:01.092Z,72.50
2017-12-16T12:54:29.527Z,72.40
2017-12-16T12:56:57.149Z,72.40
2017-12-16T12:59:24.740Z,72.00
2017-12-16T13:01:52.378Z,72.50
2017-12-16T13:04:19.984Z,72.00
2017-12-16T13:06:47.620Z,71.40
2017-12-16T13:09:15.240Z,71.70
2017-12-16T13:11:43.601Z,71.90
2017-12-16T13:14:11.225Z,71.70
2017-12-16T13:16:38.883Z,71.90
2017-12-16T13:19:06.500Z,71.50
2017-12-16T13:21:34.946Z,71.20
2017-12-16T13:24:02.510Z,71.00
2017-12-16T13:26:30.143Z,71.50
2017-12-16T13:28:57.737Z,71.70
2017-12-16T13:31:25.357Z,71.60
2017-12-16T13:33:52.948Z,71.50
2017-12-16T13:36:20.551Z,71.30
2017-12-16T13:38:48.171Z,71.60
2017-12-16T13:41:15.808Z,71.20
2017-12-16T13:43:43.426Z,70.80
2017-12-16T13:46:11.797Z,71.10
2017-12-16T13:48:40.174Z,70.80
2017-12-16T13:51:08.573Z,71.20
2017-12-16T13:53:36.176Z,71.20
2017-12-16T13:56:03.809Z,70.80
2017-12-16T13:58:31.422Z,70.90
2017-12-16T14:00:59.013Z,70.80
2017-12-16T14:03:26.712Z,71.10
2017-12-16T14:05:54.906Z,70.90
2017-12-16T14:08:22.528Z,71.00
2017-12-16T14:10:50.110Z,70.80
2017-12-16T14:13:17.732Z,70.70
2017-12-16T14:15:45.324Z,70.40
2017-12-16T14:18:12.919Z,70.50
2017-12-16T14:20:40.553Z,70.40
2017-12-16T14:23:08.150Z,70.30
2017-12-16T14:25:35.788Z,70.50
2017-12-16T14:28:03.401Z,71.20
2017-12-16T14:30:31.038Z,70.30
2017-12-16T14:32:59.453Z,70.10
2017-12-16T14:35:27.057Z,70.10
2017-12-16T14:37:54.805Z,70.40
2017-12-16T14:40:22.409Z,70.50
2017-12-16T14:42:50.817Z,70.40
2017-12-16T14:45:18.424Z,70.30
2017-12-16T14:47:46.053Z,70.10
2017-12-16T14:50:13.645Z,69.90
2017-12-16T14:52:42.013Z,70.70
2017-12-16T14:55:09.640Z,69.80
2017-12-16T14:57:37.300Z,69.80
2017-12-16T15:00:04.928Z,69.80
2017-12-16T15:02:33.297Z,69.80
2017-12-16T15:05:00.897Z,69.70
2017-12-16T15:07:28.518Z,69.70
2017-12-16T15:09:56.116Z,69.80
2017-12-16T15:12:23.746Z,69.50
2017-12-16T15:14:51.360Z,69.50
2017-12-16T15:17:18.952Z,69.40
2017-12-16T15:19:46.572Z,69.50
2017-12-16T15:22:14.166Z,69.40
2017-12-16T15:24:41.869Z,69.20
2017-12-16T15:27:09.464Z,69.30
2017-12-16T15:29:37.056Z,68.90
2017-12-16T15:32:04.691Z,69.40
2017-12-16T15:34:32.278Z,69.50
2017-12-16T15:36:59.917Z,69.40
2017-12-16T15:39:27.569Z,69.40
2017-12-16T15:41:55.205Z,69.30
2017-12-16T15:44:22.825Z,69.20
2017-12-16T15:46:50.438Z,69.40
2017-12-16T15:49:18.060Z,69.40
2017-12-16T15:51:46.429Z,69.30
2017-12-16T15:54:14.050Z,69.20
2017-12-16T15:56:41.640Z,69.30
2017-12-16T15:59:09.241Z,69.20
2017-12-16T16:01:36.877Z,69.30
2017-12-16T16:04:06.031Z,69.30
2017-12-16T16:06:33.681Z,69.30
2017-12-16T16:09:01.293Z,69.20
2017-12-16T16:11:28.928Z,69.20
2017-12-16T16:13:56.533Z,68.90
2017-12-16T16:16:24.888Z,69.00
2017-12-16T16:18:54.078Z,69.10
2017-12-16T16:21:21.681Z,69.00
2017-12-16T16:23:49.345Z,69.10
2017-12-16T16:26:16.972Z,69.40
2017-12-16T16:28:44.565Z,69.10
2017-12-16T16:31:12.944Z,69.20
2017-12-16T16:33:40.535Z,69.10
2017-12-16T16:36:08.156Z,68.80
2017-12-16T16:38:36.529Z,68.80
2017-12-16T16:41:04.938Z,69.20
2017-12-16T16:43:32.541Z,69.20
2017-12-16T16:46:00.130Z,69.30
2017-12-16T16:48:28.530Z,69.40
2017-12-16T16:50:56.171Z,69.30
2017-12-16T16:53:24.565Z,69.20
2017-12-16T16:55:52.275Z,69.20
2017-12-16T16:58:21.735Z,69.30
2017-12-16T17:00:50.564Z,69.70
2017-12-16T17:03:18.436Z,69.60
2017-12-16T17:05:46.409Z,69.40
2017-12-16T17:08:14.268Z,69.60
2017-12-16T17:10:42.243Z,69.40
2017-12-16T17:13:10.107Z,69.50
2017-12-16T17:15:38.079Z,69.50
2017-12-16T17:18:06.047Z,69.80
2017-12-16T17:20:33.913Z,70.00
2017-12-16T17:23:01.881Z,69.80
2017-12-16T17:25:29.744Z,69.70
2017-12-16T17:27:57.712Z,69.50
2017-12-16T17:30:25.578Z,69.50
2017-12-16T17:32:53.457Z,70.00
2017-12-16T17:35:21.624Z,70.00
2017-12-16T17:37:49.592Z,69.90
2017-12-16T17:40:17.564Z,69.50
2017-12-16T17:42:45.443Z,69.50
2017-12-16T17:45:13.307Z,69.70
2017-12-16T17:47:41.163Z,69.40
2017-12-16T17:50:09.347Z,69.50
2017-12-16T17:52:38.076Z,69.50
2017-12-16T17:55:05.994Z,69.50
2017-12-16T17:57:34.012Z,69.60
2017-12-16T18:00:01.927Z,69.80
2017-12-16T18:02:29.796Z,69.80
2017-12-16T18:04:57.866Z,70.00
2017-12-16T18:07:25.746Z,69.70
2017-12-16T18:09:53.710Z,69.80
2017-12-16T18:12:21.673Z,69.90
2017-12-16T18:14:49.641Z,70.00
2017-12-16T18:17:17.509Z,70.10
2017-12-16T18:22:19.387Z,70.10
2017-12-16T18:24:47.353Z,70.00
2017-12-16T18:27:15.222Z,69.90
2017-12-16T18:29:43.090Z,69.60
2017-12-16T18:32:10.904Z,69.60
2017-12-16T18:34:38.776Z,69.70
2017-12-16T18:37:06.684Z,69.80
2017-12-16T18:39:34.559Z,69.50
2017-12-16T18:42:02.419Z,69.50
2017-12-16T18:44:30.389Z,69.30
2017-12-16T18:46:58.208Z,69.50
2017-12-16T18:49:26.014Z,69.70
2017-12-16T18:51:53.624Z,69.70
2017-12-16T18:54:21.996Z,70.00
2017-12-16T18:56:50.390Z,70.00
2017-12-16T18:59:17.988Z,69.80
2017-12-16T19:01:45.624Z,70.10
2017-12-16T19:04:13.231Z,70.00
2017-12-16T19:06:41.587Z,70.00
2017-12-16T19:09:09.206Z,70.10
2017-12-16T19:11:37.565Z,70.20
2017-12-16T19:14:05.230Z,70.20
2017-12-16T19:16:33.664Z,70.20
2017-12-16T19:19:01.281Z,71.00
2017-12-16T19:21:29.983Z,69.70
2017-12-16T19:23:57.895Z,69.60
2017-12-16T19:26:25.969Z,69.90
2017-12-16T19:28:53.946Z,69.60
2017-12-16T19:31:21.902Z,70.20
2017-12-16T19:33:49.877Z,69.80
2017-12-16T19:36:17.740Z,69.70
2017-12-16T19:38:45.659Z,69.50
2017-12-16T19:41:13.575Z,69.90
2017-12-16T19:43:41.449Z,70.10
2017-12-16T19:46:09.420Z,70.00
2017-12-16T19:48:38.124Z,70.00
2017-12-16T19:51:06.885Z,69.90
2017-12-16T19:53:34.755Z,69.90
2017-12-16T19:56:02.617Z,70.20
2017-12-16T19:58:30.488Z,70.10
2017-12-16T20:00:58.352Z,70.30
2017-12-16T20:03:26.317Z,70.50
2017-12-16T20:05:54.188Z,70.20
2017-12-16T20:08:22.057Z,70.50
2017-12-16T20:10:49.930Z,70.80
2017-12-16T20:13:17.886Z,70.30
2017-12-16T20:15:45.780Z,70.30
2017-12-16T20:18:15.162Z,70.40
2017-12-16T20:20:43.037Z,70.40
2017-12-16T20:23:11.619Z,71.20
2017-12-16T20:25:39.247Z,71.00
2017-12-16T20:28:06.864Z,70.70
2017-12-16T20:30:35.221Z,70.50
2017-12-16T20:33:04.345Z,70.80
2017-12-16T20:35:32.705Z,71.30
2017-12-16T20:38:00.374Z,71.10
2017-12-16T20:40:29.752Z,71.10
2017-12-16T20:42:57.724Z,71.10
2017-12-16T20:45:25.688Z,70.80
2017-12-16T20:47:53.655Z,70.70
2017-12-16T20:50:21.583Z,71.20
2017-12-16T20:52:49.447Z,71.20
2017-12-16T20:55:17.359Z,70.80
2017-12-16T20:57:45.231Z,70.70
2017-12-16T21:00:17.295Z,70.70
2017-12-16T21:02:45.360Z,70.70
2017-12-16T21:05:13.186Z,71.10
2017-12-16T21:07:40.996Z,70.80
2017-12-16T21:10:08.813Z,70.80
2017-12-16T21:12:36.734Z,71.20
2017-12-16T21:15:04.554Z,71.00
2017-12-16T21:17:32.355Z,70.80
2017-12-16T21:20:00.225Z,70.30
2017-12-16T21:22:28.089Z,70.10
2017-12-16T21:24:55.957Z,70.40
2017-12-16T21:27:24.606Z,70.70
2017-12-16T21:29:53.234Z,70.40
2017-12-16T21:32:21.098Z,71.00
2017-12-16T21:34:48.960Z,70.10
2017-12-16T21:37:16.823Z,70.30
2017-12-16T21:39:44.701Z,70.20
2017-12-16T21:42:14.082Z,70.60
2017-12-16T21:44:41.709Z,70.70
2017-12-16T21:47:09.363Z,70.30
2017-12-16T21:49:38.109Z,70.60
2017-12-16T21:52:05.976Z,70.40
2017-12-16T21:54:33.905Z,70.80
2017-12-16T21:57:01.813Z,70.70
2017-12-16T21:59:29.782Z,70.50
2017-12-16T22:01:57.651Z,70.50
2017-12-16T22:04:27.054Z,70.30
2017-12-16T22:06:55.016Z,70.30
2017-12-16T22:09:22.885Z,70.00
2017-12-16T22:11:50.701Z,70.70
2017-12-16T22:14:18.613Z,70.30
2017-12-16T22:16:46.482Z,70.50
2017-12-16T22:19:14.457Z,70.70
2017-12-16T22:21:42.314Z,70.40
2017-12-16T22:24:10.189Z,70.50
2017-12-16T22:26:38.050Z,70.60
2017-12-16T22:29:05.661Z,70.10
2017-12-16T22:31:34.057Z,70.70
2017-12-16T22:34:01.649Z,70.70
2017-12-16T22:36:29.276Z,70.90
2017-12-16T22:38:56.860Z,70.50
2017-12-16T22:41:24.505Z,71.00
2017-12-16T22:43:52.188Z,70.90
2017-12-16T22:46:19.760Z,70.80
2017-12-16T22:48:47.404Z,70.90
2017-12-16T22:51:15.005Z,71.10
2017-12-16T22:53:42.589Z,71.10
2017-12-16T22:56:11.051Z,71.40
2017-12-16T22:58:38.629Z,71.40
2017-12-16T23:01:06.257Z,71.70
2017-12-16T23:03:34.628Z,71.20
2017-12-16T23:06:02.373Z,71.20
2017-12-16T23:08:30.037Z,71.50
2017-12-16T23:10:57.678Z,71.90
2017-12-16T23:13:25.329Z,71.40
2017-12-16T23:15:52.941Z,71.20
2017-12-16T23:18:20.562Z,71.40
2017-12-16T23:20:48.164Z,71.50
2017-12-16T23:23:15.827Z,71.10
2017-12-16T23:25:44.230Z,71.50
2017-12-16T23:28:12.633Z,72.10
2017-12-16T23:30:40.262Z,71.30
2017-12-16T23:33:08.655Z,71.30
2017-12-16T23:35:37.073Z,71.90
2017-12-16T23:38:04.682Z,71.80
2017-12-16T23:40:33.052Z,71.30
2017-12-16T23:43:00.677Z,71.30
2017-12-16T23:45:28.296Z,71.30
2017-12-16T23:47:56.704Z,71.50
2017-12-16T23:50:24.306Z,71.40
2017-12-16T23:55:25.901Z,71.30
2017-12-16T23:57:54.343Z,71.30
